OMDBORMM

Guest
Details From OMDB - Dubai Intl
To ORMM - Basrah Intl
Flight Number -
Tags Generated
Created
Modified
Stats Distance 518 nm / 959 km
Max Altitude 0 ft / 0 m
Waypoints 3
Social Downloads 1
Likes 0
Share VATSIM

Download

Looking for another format? Having issues loading an existing format? Contact us
Advertisement - Login to hide

Notes

Generated

Route

OMDB R2617 ORMM

ID Type Via Altitude Latitude Longitude Leg Dist Tot Dist Heading (true) Name
O OMDB APT - 0 ft / 0 m 25.26213˚ 55.34757˚ - 0 nm - -
R2617 FIX - 0 ft / 0 m 30.53550˚ 47.67633˚ 515 nm 515 nm 310° / 306° -
O ORMM APT - 0 ft / 0 m 30.56217˚ 47.64850˚ 2 nm 517 nm 318° / 318° -

Altitude Profile

Advertisement - Login to hide

Weather


0- 5 10 15 20 25 30 35+ Temperature / ° C

Clouds and Precipitation
Forecast for 2017-12-12 12:00 UTC. Updated an hour ago

Ground ~20,000 ft ~40,000 ft Winds

OMDB

Details ICAO OMDB (DXB)
Name DUBAI INTL
Region United Arab Emirates
Timezone Asia/Dubai (UTC+4.0)
Stats Elevation 62 ft / 19 m (AMSL)
Location 25.254912° 55.364260°
Runways 2
Magnetic Variation 2.047° E

METAR

OMDB 121200Z 31013KT 9999 SCT040 24/14 Q1015 NOSIG

Decode

TAF

TAF OMDB 121102Z 1212/1318 32010KT 9999 SCT040 BECMG 1215/1217 10007KT PROB30 TEMPO 1307/1312 10015G25KT 4000 BLDU

Decode

Departure Runways

ID Width Length Bearing (true) Bearing (mag) Surface Threshold Offset Overrun Length
12L 197 ft / 60 m 13,124 ft / 4,000 m 121.49° 119.44° Asphalt 1,312 ft / 400 m 395 ft / 120 m
12R 151 ft / 46 m 13,139 ft / 4,005 m 121.48° 119.43° Asphalt 394 ft / 120 m 197 ft / 60 m
30L 151 ft / 46 m 13,139 ft / 4,005 m 301.50° 299.45° Asphalt 2,953 ft / 900 m 197 ft / 60 m
30R 197 ft / 60 m 13,124 ft / 4,000 m 301.51° 299.46° Asphalt 0 ft / 0 m 395 ft / 120 m

ORMM

Details ICAO ORMM (BSR)
Name BASRAH INTL
Region Iraq
Timezone Asia/Baghdad (UTC+3.0)
Stats Elevation 11 ft / 3 m (AMSL)
Location 30.548834° 47.662416°
Runways 1
Magnetic Variation 3.847° E

METAR

ORMM 121200Z 28016KT 8000 NSC 22/M01 Q1019 NOSIG

Decode

TAF

Not found

Destination Runways

ID Width Length Bearing (true) Bearing (mag) Surface Threshold Offset Overrun Length
14 148 ft / 45 m 13,084 ft / 3,988 m 138.04° 134.19° Concrete 0 ft / 0 m 300 ft / 91 m
32 148 ft / 45 m 13,084 ft / 3,988 m 318.06° 314.21° Concrete 0 ft / 0 m 300 ft / 91 m

Approach Navaids

Runway Type Ident Frequency Range Bearing (true) Bearing (mag) Slope Elevation
14 Localiser BLA 110.70 MHz 18 nm / 33 km 137.97° 134.13° - 14 ft / 4 m (AMSL)
14 Glidescope BLA 110.70 MHz 10 nm / 19 km 138.05° 134.20° 3.00° 11 ft / 3 m (AMSL)
32 Localiser BAL 110.30 MHz 18 nm / 33 km 317.89° 314.04° - 12 ft / 4 m (AMSL)
32 Glidescope BAL 110.30 MHz 10 nm / 19 km 318.05° 314.20° 3.00° 8 ft / 2 m (AMSL)

Popular Alternatives